Map

Track Data

SID SEASON NUMBER BASIN SUBBASIN NAME ISO_TIME NATURE LAT LON WMO_WIND WMO_PRES WMO_AGENCY TRACK_TYPE DIST2LAND LANDFALL IFLAG USA_AGENCY USA_ATCF_ID USA_LAT USA_LON USA_RECORD USA_STATUS USA_WIND USA_PRES USA_SSHS USA_R34_NE USA_R34_SE USA_R34_SW USA_R34_NW USA_R50_NE USA_R50_SE USA_R50_SW USA_R50_NW USA_R64_NE USA_R64_SE USA_R64_SW USA_R64_NW USA_POCI USA_ROCI USA_RMW USA_EYE TOKYO_LAT TOKYO_LON TOKYO_GRADE TOKYO_WIND TOKYO_PRES TOKYO_R50_DIR TOKYO_R50_LONG TOKYO_R50_SHORT TOKYO_R30_DIR TOKYO_R30_LONG TOKYO_R30_SHORT TOKYO_LAND CMA_LAT CMA_LON CMA_CAT CMA_WIND CMA_PRES HKO_LAT HKO_LON HKO_CAT HKO_WIND HKO_PRES NEWDELHI_LAT NEWDELHI_LON NEWDELHI_GRADE NEWDELHI_WIND NEWDELHI_PRES NEWDELHI_CI NEWDELHI_DP NEWDELHI_POCI REUNION_LAT REUNION_LON REUNION_TYPE REUNION_WIND REUNION_PRES REUNION_TNUM REUNION_CI REUNION_RMW REUNION_R34_NE REUNION_R34_SE REUNION_R34_SW REUNION_R34_NW REUNION_R50_NE REUNION_R50_SE REUNION_R50_SW REUNION_R50_NW REUNION_R64_NE REUNION_R64_SE REUNION_R64_SW REUNION_R64_NW BOM_LAT BOM_LON BOM_TYPE BOM_WIND BOM_PRES BOM_TNUM BOM_CI BOM_RMW BOM_R34_NE BOM_R34_SE BOM_R34_SW BOM_R34_NW BOM_R50_NE BOM_R50_SE BOM_R50_SW BOM_R50_NW BOM_R64_NE BOM_R64_SE BOM_R64_SW BOM_R64_NW BOM_ROCI BOM_POCI BOM_EYE BOM_POS_METHOD BOM_PRES_METHOD NADI_LAT NADI_LON NADI_CAT NADI_WIND NADI_PRES WELLINGTON_LAT WELLINGTON_LON WELLINGTON_WIND WELLINGTON_PRES DS824_LAT DS824_LON DS824_STAGE DS824_WIND DS824_PRES TD9636_LAT TD9636_LON TD9636_STAGE TD9636_WIND TD9636_PRES TD9635_LAT TD9635_LON TD9635_WIND TD9635_PRES TD9635_ROCI NEUMANN_LAT NEUMANN_LON NEUMANN_CLASS NEUMANN_WIND NEUMANN_PRES MLC_LAT MLC_LON MLC_CLASS MLC_WIND MLC_PRES USA_GUST BOM_GUST BOM_GUST_PER REUNION_GUST REUNION_GUST_PER USA_SEAHGT USA_SEARAD_NE USA_SEARAD_SE USA_SEARAD_SW USA_SEARAD_NW STORM_SPEED STORM_DIR
1968258N15330 1968 90 NA NA EDNA 1968-09-13 18:00:00 TS 14.5000 -30.0000 25 hurdat_atl main 1345 1345 O_____________ hurdat_atl AL081968 14.5000 -30.0000 TD 25 -1 9 291
1968258N15330 1968 90 NA NA EDNA 1968-09-13 21:00:00 TS 14.6626 -30.4398 main 1387 1387 P_____________ AL081968 14.6626 -30.4398 TD 27 -1 9 289
1968258N15330 1968 90 NA NA EDNA 1968-09-14 00:00:00 TS 14.8000 -30.9000 30 hurdat_atl main 1441 1441 O_____________ hurdat_atl AL081968 14.8000 -30.9000 TD 30 -1 10 284
1968258N15330 1968 90 NA NA EDNA 1968-09-14 03:00:00 TS 14.8999 -31.3926 main 1494 1494 P_____________ AL081968 14.8999 -31.3926 TD 32 -1 10 282
1968258N15330 1968 90 NA NA EDNA 1968-09-14 06:00:00 TS 15.0000 -31.9000 35 hurdat_atl main 1548 1548 O_____________ hurdat_atl AL081968 15.0000 -31.9000 TS 35 0 10 284
1968258N15330 1968 90 NA NA EDNA 1968-09-14 09:00:00 TS 15.1424 -32.4000 main 1602 1602 P_____________ AL081968 15.1424 -32.4000 TS 40 0 10 287
1968258N15330 1968 90 NA NA EDNA 1968-09-14 12:00:00 TS 15.3000 -32.9000 45 hurdat_atl main 1655 1655 O_____________ hurdat_atl AL081968 15.3000 -32.9000 TS 45 0 10 288
1968258N15330 1968 90 NA NA EDNA 1968-09-14 15:00:00 TS 15.4574 -33.4000 main 1709 1709 P_____________ AL081968 15.4574 -33.4000 TS 50 0 10 287
1968258N15330 1968 90 NA NA EDNA 1968-09-14 18:00:00 TS 15.6000 -33.9000 55 hurdat_atl main 1763 1763 O_____________ hurdat_atl AL081968 15.6000 -33.9000 TS 55 0 10 284
1968258N15330 1968 90 NA NA EDNA 1968-09-14 21:00:00 TS 15.7074 -34.4076 main 1817 1817 P_____________ AL081968 15.7074 -34.4076 TS 57 0 10 282
1968258N15330 1968 90 NA NA EDNA 1968-09-15 00:00:00 TS 15.8000 -34.9000 60 hurdat_atl main 1870 1870 O_____________ hurdat_atl AL081968 15.8000 -34.9000 TS 60 0 9 282
1968258N15330 1968 90 NA NA EDNA 1968-09-15 03:00:00 TS 15.8999 -35.3576 main 1924 1924 P_____________ AL081968 15.8999 -35.3576 TS 60 0 9 283
1968258N15330 1968 90 NA NA EDNA 1968-09-15 06:00:00 TS 16.0000 -35.8000 60 hurdat_atl main 1967 1967 O_____________ hurdat_atl AL081968 16.0000 -35.8000 TS 60 0 9 284
1968258N15330 1968 90 NA NA EDNA 1968-09-15 09:00:00 TS 16.1074 -36.2425 main 2010 2010 P_____________ AL081968 16.1074 -36.2425 TS 60 0 9 283
1968258N15330 1968 90 NA NA EDNA 1968-09-15 12:00:00 TS 16.2000 -36.7000 60 hurdat_atl main 2064 2044 O_____________ hurdat_atl AL081968 16.2000 -36.7000 TS 60 0 9 279
1968258N15330 1968 90 NA NA EDNA 1968-09-15 15:00:00 TS 16.2575 -37.2001 main 2044 2003 P_____________ AL081968 16.2575 -37.2001 TS 57 0 10 276
1968258N15330 1968 90 NA NA EDNA 1968-09-15 18:00:00 TS 16.3000 -37.7000 55 hurdat_atl main 2003 1971 O_____________ hurdat_atl AL081968 16.3000 -37.7000 TS 55 0 9 276
1968258N15330 1968 90 NA NA EDNA 1968-09-15 21:00:00 TS 16.3498 -38.1500 main 1963 1939 P_____________ AL081968 16.3498 -38.1500 TS 55 0 9 277
1968258N15330 1968 90 NA NA EDNA 1968-09-16 00:00:00 TS 16.4000 -38.6000 55 hurdat_atl main 1939 1908 O_____________ hurdat_atl AL081968 16.4000 -38.6000 TS 55 0 9 277
1968258N15330 1968 90 NA NA EDNA 1968-09-16 03:00:00 TS 16.4574 -39.0850 main 1908 1870 P_____________ AL081968 16.4574 -39.0850 TS 52 0 10 276
1968258N15330 1968 90 NA NA EDNA 1968-09-16 06:00:00 TS 16.5000 -39.6000 50 hurdat_atl main 1870 1833 O_____________ hurdat_atl AL081968 16.5000 -39.6000 TS 50 0 10 272
1968258N15330 1968 90 NA NA EDNA 1968-09-16 09:00:00 TS 16.5000 -40.1501 main 1826 1790 P_____________ AL081968 16.5000 -40.1501 TS 47 0 11 270
1968258N15330 1968 90 NA NA EDNA 1968-09-16 12:00:00 TS 16.5000 -40.7000 45 hurdat_atl main 1790 1756 O_____________ hurdat_atl AL081968 16.5000 -40.7000 TS 45 0 10 272
1968258N15330 1968 90 NA NA EDNA 1968-09-16 15:00:00 TS 16.5423 -41.2000 main 1756 1731 P_____________ AL081968 16.5423 -41.2000 TS 42 0 10 276
1968258N15330 1968 90 NA NA EDNA 1968-09-16 18:00:00 TS 16.6000 -41.7000 40 hurdat_atl main 1731 1698 O_____________ hurdat_atl AL081968 16.6000 -41.7000 TS 40 0 10 276
1968258N15330 1968 90 NA NA EDNA 1968-09-16 21:00:00 TS 16.6499 -42.2425 main 1698 1670 P_____________ AL081968 16.6499 -42.2425 TS 37 0 11 275
1968258N15330 1968 90 NA NA EDNA 1968-09-17 00:00:00 TS 16.7000 -42.8000 35 1012 hurdat_atl main 1670 1639 O_____________ hurdat_atl AL081968 16.7000 -42.8000 TS 35 1012 0 11 275
1968258N15330 1968 90 NA NA EDNA 1968-09-17 03:00:00 TS 16.7499 -43.3500 main 1632 1608 P_____________ AL081968 16.7499 -43.3500 TS 32 -1 11 275
1968258N15330 1968 90 NA NA EDNA 1968-09-17 06:00:00 TS 16.8000 -43.9000 30 hurdat_atl main 1608 1576 O_____________ hurdat_atl AL081968 16.8000 -43.9000 TD 30 -1 11 275
1968258N15330 1968 90 NA NA EDNA 1968-09-17 09:00:00 TS 16.8498 -44.4425 main 1576 1550 P_____________ AL081968 16.8498 -44.4425 TD 30 -1 11 275
1968258N15330 1968 90 NA NA EDNA 1968-09-17 12:00:00 TS 16.9000 -45.0000 30 hurdat_atl main 1550 1516 O_____________ hurdat_atl AL081968 16.9000 -45.0000 TD 30 -1 11 275
1968258N15330 1968 90 NA NA EDNA 1968-09-17 15:00:00 TS 16.9504 -45.5899 main 1525 1494 P_____________ AL081968 16.9504 -45.5899 TD 27 -1 12 275
1968258N15330 1968 90 NA NA EDNA 1968-09-17 18:00:00 TS 17.0000 -46.2000 25 hurdat_atl main 1494 O_____________ hurdat_atl AL081968 17.0000 -46.2000 TD 25 -1 12 275

About IBTrACS Database

This database is a web-friendly format of International Best Track Archive for Climate Stewardship (IBTrACS), a global best track data archive curated by NOAA dating back to 1842.

Updated: 2022-11-16